sensor_id;sensor_type;location;lat;lon;timestamp;P1;durP1;ratioP1;P2;durP2;ratioP2
11427;SDS011;5770;44.504;11.346;2023-10-31T00:00:59;42.33;;;11.95;;
11427;SDS011;5770;44.504;11.346;2023-10-31T00:03:28;35.10;;;9.52;;
11427;SDS011;5770;44.504;11.346;2023-10-31T00:05:55;31.92;;;9.35;;
11427;SDS011;5770;44.504;11.346;2023-10-31T00:08:22;38.28;;;10.35;;
11427;SDS011;5770;44.504;11.346;2023-10-31T00:10:49;40.45;;;11.07;;
11427;SDS011;5770;44.504;11.346;2023-10-31T00:13:16;48.08;;;12.40;;
11427;SDS011;5770;44.504;11.346;2023-10-31T00:15:43;40.08;;;10.90;;
11427;SDS011;5770;44.504;11.346;2023-10-31T00:18:10;32.55;;;9.52;;
11427;SDS011;5770;44.504;11.346;2023-10-31T00:20:39;32.63;;;9.57;;
11427;SDS011;5770;44.504;11.346;2023-10-31T00:23:06;33.10;;;8.60;;
11427;SDS011;5770;44.504;11.346;2023-10-31T00:25:33;39.97;;;10.65;;
11427;SDS011;5770;44.504;11.346;2023-10-31T00:28:00;44.78;;;12.18;;
11427;SDS011;5770;44.504;11.346;2023-10-31T00:30:27;35.13;;;9.75;;
11427;SDS011;5770;44.504;11.346;2023-10-31T00:32:55;41.60;;;11.32;;
11427;SDS011;5770;44.504;11.346;2023-10-31T00:35:22;42.50;;;11.25;;
11427;SDS011;5770;44.504;11.346;2023-10-31T00:37:53;45.35;;;11.27;;
11427;SDS011;5770;44.504;11.346;2023-10-31T00:40:20;46.35;;;12.35;;
11427;SDS011;5770;44.504;11.346;2023-10-31T00:42:47;45.47;;;12.43;;
11427;SDS011;5770;44.504;11.346;2023-10-31T00:45:14;49.67;;;12.70;;
11427;SDS011;5770;44.504;11.346;2023-10-31T00:47:41;48.70;;;12.75;;
11427;SDS011;5770;44.504;11.346;2023-10-31T00:50:09;41.72;;;10.55;;
11427;SDS011;5770;44.504;11.346;2023-10-31T00:52:36;56.58;;;14.05;;
11427;SDS011;5770;44.504;11.346;2023-10-31T00:55:05;49.45;;;12.77;;
11427;SDS011;5770;44.504;11.346;2023-10-31T00:57:32;44.60;;;11.63;;
11427;SDS011;5770;44.504;11.346;2023-10-31T00:59:59;43.60;;;11.05;;
11427;SDS011;5770;44.504;11.346;2023-10-31T01:02:26;41.70;;;11.05;;
11427;SDS011;5770;44.504;11.346;2023-10-31T01:04:53;51.35;;;12.90;;
11427;SDS011;5770;44.504;11.346;2023-10-31T01:07:20;60.95;;;14.35;;
11427;SDS011;5770;44.504;11.346;2023-10-31T01:09:47;42.88;;;10.77;;
11427;SDS011;5770;44.504;11.346;2023-10-31T01:12:16;46.90;;;11.57;;
11427;SDS011;5770;44.504;11.346;2023-10-31T01:14:43;47.78;;;13.90;;
11427;SDS011;5770;44.504;11.346;2023-10-31T01:17:10;54.55;;;17.17;;
11427;SDS011;5770;44.504;11.346;2023-10-31T01:19:37;59.95;;;15.63;;
11427;SDS011;5770;44.504;11.346;2023-10-31T01:22:04;45.30;;;11.23;;
11427;SDS011;5770;44.504;11.346;2023-10-31T01:24:32;50.22;;;12.00;;
11427;SDS011;5770;44.504;11.346;2023-10-31T01:26:59;53.97;;;12.95;;
11427;SDS011;5770;44.504;11.346;2023-10-31T01:29:28;42.05;;;10.18;;
11427;SDS011;5770;44.504;11.346;2023-10-31T01:31:55;43.15;;;10.45;;
11427;SDS011;5770;44.504;11.346;2023-10-31T01:34:22;37.25;;;9.10;;
11427;SDS011;5770;44.504;11.346;2023-10-31T01:36:50;45.50;;;11.55;;
11427;SDS011;5770;44.504;11.346;2023-10-31T01:39:17;54.30;;;13.93;;
11427;SDS011;5770;44.504;11.346;2023-10-31T01:41:44;42.42;;;11.60;;
11427;SDS011;5770;44.504;11.346;2023-10-31T01:44:11;47.13;;;12.13;;
11427;SDS011;5770;44.504;11.346;2023-10-31T01:46:40;45.25;;;11.15;;
11427;SDS011;5770;44.504;11.346;2023-10-31T01:49:07;48.83;;;12.63;;
11427;SDS011;5770;44.504;11.346;2023-10-31T01:51:34;50.00;;;12.68;;
11427;SDS011;5770;44.504;11.346;2023-10-31T01:54:02;37.83;;;10.05;;
11427;SDS011;5770;44.504;11.346;2023-10-31T01:56:29;44.13;;;11.52;;
11427;SDS011;5770;44.504;11.346;2023-10-31T01:58:56;48.63;;;12.00;;
11427;SDS011;5770;44.504;11.346;2023-10-31T02:01:23;28.42;;;8.05;;
11427;SDS011;5770;44.504;11.346;2023-10-31T02:03:52;45.38;;;11.73;;
11427;SDS011;5770;44.504;11.346;2023-10-31T02:06:20;43.00;;;10.95;;
11427;SDS011;5770;44.504;11.346;2023-10-31T02:08:47;44.47;;;11.27;;
11427;SDS011;5770;44.504;11.346;2023-10-31T02:11:14;55.90;;;13.85;;
11427;SDS011;5770;44.504;11.346;2023-10-31T02:13:41;48.20;;;12.45;;
11427;SDS011;5770;44.504;11.346;2023-10-31T02:16:09;40.05;;;10.48;;
11427;SDS011;5770;44.504;11.346;2023-10-31T02:18:36;39.53;;;10.02;;
11427;SDS011;5770;44.504;11.346;2023-10-31T02:21:05;59.47;;;14.27;;
11427;SDS011;5770;44.504;11.346;2023-10-31T02:23:33;44.45;;;11.32;;
11427;SDS011;5770;44.504;11.346;2023-10-31T02:26:01;53.72;;;12.88;;
11427;SDS011;5770;44.504;11.346;2023-10-31T02:28:29;50.28;;;12.95;;
11427;SDS011;5770;44.504;11.346;2023-10-31T02:30:56;63.60;;;15.20;;
11427;SDS011;5770;44.504;11.346;2023-10-31T02:33:23;39.70;;;9.70;;
11427;SDS011;5770;44.504;11.346;2023-10-31T02:35:50;42.20;;;10.38;;
11427;SDS011;5770;44.504;11.346;2023-10-31T02:38:17;43.47;;;11.05;;
11427;SDS011;5770;44.504;11.346;2023-10-31T02:40:46;45.38;;;10.82;;
11427;SDS011;5770;44.504;11.346;2023-10-31T02:43:13;54.58;;;13.27;;
11427;SDS011;5770;44.504;11.346;2023-10-31T02:45:40;49.35;;;11.27;;
11427;SDS011;5770;44.504;11.346;2023-10-31T02:48:07;40.63;;;10.13;;
11427;SDS011;5770;44.504;11.346;2023-10-31T02:50:34;41.72;;;9.73;;
11427;SDS011;5770;44.504;11.346;2023-10-31T02:53:01;49.70;;;12.27;;
11427;SDS011;5770;44.504;11.346;2023-10-31T02:55:29;46.90;;;10.95;;
11427;SDS011;5770;44.504;11.346;2023-10-31T02:57:57;55.72;;;13.32;;
11427;SDS011;5770;44.504;11.346;2023-10-31T03:00:24;53.55;;;13.30;;
11427;SDS011;5770;44.504;11.346;2023-10-31T03:02:51;46.72;;;11.20;;
11427;SDS011;5770;44.504;11.346;2023-10-31T03:05:18;49.03;;;12.05;;
11427;SDS011;5770;44.504;11.346;2023-10-31T03:07:46;50.92;;;11.95;;
11427;SDS011;5770;44.504;11.346;2023-10-31T03:10:13;47.30;;;11.75;;
11427;SDS011;5770;44.504;11.346;2023-10-31T03:12:40;53.50;;;12.55;;
11427;SDS011;5770;44.504;11.346;2023-10-31T03:15:09;55.42;;;12.45;;
11427;SDS011;5770;44.504;11.346;2023-10-31T03:17:36;53.55;;;12.48;;
11427;SDS011;5770;44.504;11.346;2023-10-31T03:20:04;39.42;;;9.48;;
11427;SDS011;5770;44.504;11.346;2023-10-31T03:22:31;51.28;;;11.85;;
11427;SDS011;5770;44.504;11.346;2023-10-31T03:24:58;53.42;;;12.23;;
11427;SDS011;5770;44.504;11.346;2023-10-31T03:27:26;49.83;;;11.95;;
11427;SDS011;5770;44.504;11.346;2023-10-31T03:29:53;34.72;;;8.93;;
11427;SDS011;5770;44.504;11.346;2023-10-31T03:32:21;49.95;;;11.43;;
11427;SDS011;5770;44.504;11.346;2023-10-31T03:34:48;45.47;;;10.80;;
11427;SDS011;5770;44.504;11.346;2023-10-31T03:37:15;36.05;;;8.60;;
11427;SDS011;5770;44.504;11.346;2023-10-31T03:39:43;47.92;;;11.45;;
11427;SDS011;5770;44.504;11.346;2023-10-31T03:42:10;44.17;;;10.70;;
11427;SDS011;5770;44.504;11.346;2023-10-31T03:44:37;47.05;;;11.20;;
11427;SDS011;5770;44.504;11.346;2023-10-31T03:47:04;40.97;;;10.23;;
11427;SDS011;5770;44.504;11.346;2023-10-31T03:49:33;40.80;;;9.40;;
11427;SDS011;5770;44.504;11.346;2023-10-31T03:52:00;39.25;;;10.05;;
11427;SDS011;5770;44.504;11.346;2023-10-31T03:54:27;46.92;;;10.70;;
11427;SDS011;5770;44.504;11.346;2023-10-31T03:56:54;48.58;;;11.52;;
11427;SDS011;5770;44.504;11.346;2023-10-31T03:59:21;40.67;;;9.85;;
11427;SDS011;5770;44.504;11.346;2023-10-31T04:01:48;42.50;;;10.07;;
11427;SDS011;5770;44.504;11.346;2023-10-31T04:04:16;44.75;;;10.60;;
11427;SDS011;5770;44.504;11.346;2023-10-31T04:06:44;35.50;;;8.98;;
11427;SDS011;5770;44.504;11.346;2023-10-31T04:09:12;53.25;;;12.10;;
11427;SDS011;5770;44.504;11.346;2023-10-31T04:11:39;38.53;;;9.20;;
11427;SDS011;5770;44.504;11.346;2023-10-31T04:14:08;43.47;;;9.98;;
11427;SDS011;5770;44.504;11.346;2023-10-31T04:16:38;48.00;;;10.55;;
11427;SDS011;5770;44.504;11.346;2023-10-31T04:19:05;37.10;;;8.98;;
11427;SDS011;5770;44.504;11.346;2023-10-31T04:21:32;47.47;;;10.98;;
11427;SDS011;5770;44.504;11.346;2023-10-31T04:24:00;36.50;;;8.27;;
11427;SDS011;5770;44.504;11.346;2023-10-31T04:26:27;35.85;;;8.35;;
11427;SDS011;5770;44.504;11.346;2023-10-31T04:28:54;42.60;;;9.80;;
11427;SDS011;5770;44.504;11.346;2023-10-31T04:31:22;40.33;;;9.85;;
11427;SDS011;5770;44.504;11.346;2023-10-31T04:33:49;38.88;;;9.35;;
11427;SDS011;5770;44.504;11.346;2023-10-31T04:36:16;38.20;;;8.60;;
11427;SDS011;5770;44.504;11.346;2023-10-31T04:38:43;40.22;;;9.40;;
11427;SDS011;5770;44.504;11.346;2023-10-31T04:41:11;42.75;;;10.38;;
11427;SDS011;5770;44.504;11.346;2023-10-31T04:43:39;40.95;;;9.25;;
11427;SDS011;5770;44.504;11.346;2023-10-31T04:46:06;35.08;;;8.75;;
11427;SDS011;5770;44.504;11.346;2023-10-31T04:48:33;34.20;;;8.55;;
11427;SDS011;5770;44.504;11.346;2023-10-31T04:51:01;39.03;;;10.05;;
11427;SDS011;5770;44.504;11.346;2023-10-31T04:53:28;47.03;;;11.40;;
11427;SDS011;5770;44.504;11.346;2023-10-31T04:55:55;39.03;;;9.35;;
11427;SDS011;5770;44.504;11.346;2023-10-31T04:58:23;43.22;;;10.50;;
11427;SDS011;5770;44.504;11.346;2023-10-31T05:00:50;39.38;;;9.00;;
11427;SDS011;5770;44.504;11.346;2023-10-31T05:03:17;34.05;;;8.15;;
11427;SDS011;5770;44.504;11.346;2023-10-31T05:05:44;39.63;;;9.18;;
11427;SDS011;5770;44.504;11.346;2023-10-31T05:08:11;38.38;;;9.30;;
11427;SDS011;5770;44.504;11.346;2023-10-31T05:10:39;41.30;;;10.35;;
11427;SDS011;5770;44.504;11.346;2023-10-31T05:13:06;45.20;;;9.75;;
11427;SDS011;5770;44.504;11.346;2023-10-31T05:15:34;43.40;;;9.93;;
11427;SDS011;5770;44.504;11.346;2023-10-31T05:18:02;39.83;;;9.00;;
11427;SDS011;5770;44.504;11.346;2023-10-31T05:20:29;35.22;;;8.45;;
11427;SDS011;5770;44.504;11.346;2023-10-31T05:22:56;38.88;;;9.10;;
11427;SDS011;5770;44.504;11.346;2023-10-31T05:25:23;42.55;;;9.40;;
11427;SDS011;5770;44.504;11.346;2023-10-31T05:27:50;38.28;;;8.52;;
11427;SDS011;5770;44.504;11.346;2023-10-31T05:30:18;46.20;;;10.82;;
11427;SDS011;5770;44.504;11.346;2023-10-31T05:32:46;42.17;;;9.95;;
11427;SDS011;5770;44.504;11.346;2023-10-31T05:35:13;43.78;;;10.38;;
11427;SDS011;5770;44.504;11.346;2023-10-31T05:37:41;37.17;;;8.80;;
11427;SDS011;5770;44.504;11.346;2023-10-31T05:40:10;38.95;;;9.15;;
11427;SDS011;5770;44.504;11.346;2023-10-31T05:42:37;42.33;;;9.98;;
11427;SDS011;5770;44.504;11.346;2023-10-31T05:45:05;43.53;;;10.23;;
11427;SDS011;5770;44.504;11.346;2023-10-31T05:47:32;38.03;;;8.77;;
11427;SDS011;5770;44.504;11.346;2023-10-31T05:50:01;33.13;;;8.23;;
11427;SDS011;5770;44.504;11.346;2023-10-31T05:52:28;35.13;;;8.27;;
11427;SDS011;5770;44.504;11.346;2023-10-31T05:54:55;24.33;;;5.88;;
11427;SDS011;5770;44.504;11.346;2023-10-31T05:57:26;17.80;;;4.43;;
11427;SDS011;5770;44.504;11.346;2023-10-31T05:59:53;29.38;;;7.25;;
11427;SDS011;5770;44.504;11.346;2023-10-31T06:02:20;31.45;;;7.88;;
11427;SDS011;5770;44.504;11.346;2023-10-31T06:04:48;24.65;;;6.13;;
11427;SDS011;5770;44.504;11.346;2023-10-31T06:07:16;30.60;;;7.97;;
11427;SDS011;5770;44.504;11.346;2023-10-31T06:09:43;37.70;;;8.98;;
11427;SDS011;5770;44.504;11.346;2023-10-31T06:12:10;30.50;;;8.25;;
11427;SDS011;5770;44.504;11.346;2023-10-31T06:14:37;33.92;;;8.05;;
11427;SDS011;5770;44.504;11.346;2023-10-31T06:17:04;31.40;;;7.47;;
11427;SDS011;5770;44.504;11.346;2023-10-31T06:19:33;35.38;;;8.90;;
11427;SDS011;5770;44.504;11.346;2023-10-31T06:22:00;40.25;;;10.38;;
11427;SDS011;5770;44.504;11.346;2023-10-31T06:24:29;36.53;;;8.45;;
11427;SDS011;5770;44.504;11.346;2023-10-31T06:26:56;39.13;;;9.30;;
11427;SDS011;5770;44.504;11.346;2023-10-31T06:29:23;34.88;;;8.32;;
11427;SDS011;5770;44.504;11.346;2023-10-31T06:31:50;36.78;;;9.13;;
11427;SDS011;5770;44.504;11.346;2023-10-31T06:34:17;36.67;;;8.10;;
11427;SDS011;5770;44.504;11.346;2023-10-31T06:36:44;42.15;;;9.50;;
11427;SDS011;5770;44.504;11.346;2023-10-31T06:39:11;35.78;;;8.35;;
11427;SDS011;5770;44.504;11.346;2023-10-31T06:41:40;39.20;;;8.85;;
11427;SDS011;5770;44.504;11.346;2023-10-31T06:44:07;36.90;;;9.15;;
11427;SDS011;5770;44.504;11.346;2023-10-31T06:46:34;31.30;;;7.68;;
11427;SDS011;5770;44.504;11.346;2023-10-31T06:49:01;35.20;;;8.30;;
11427;SDS011;5770;44.504;11.346;2023-10-31T06:51:29;26.40;;;6.78;;
11427;SDS011;5770;44.504;11.346;2023-10-31T06:53:56;35.63;;;8.57;;
11427;SDS011;5770;44.504;11.346;2023-10-31T06:56:22;39.38;;;9.38;;
11427;SDS011;5770;44.504;11.346;2023-10-31T06:58:51;38.40;;;9.05;;
11427;SDS011;5770;44.504;11.346;2023-10-31T07:01:18;29.85;;;6.72;;
11427;SDS011;5770;44.504;11.346;2023-10-31T07:03:46;33.80;;;8.13;;
11427;SDS011;5770;44.504;11.346;2023-10-31T07:06:14;37.05;;;8.32;;
11427;SDS011;5770;44.504;11.346;2023-10-31T07:08:41;34.42;;;9.07;;
11427;SDS011;5770;44.504;11.346;2023-10-31T07:11:08;42.38;;;10.68;;
11427;SDS011;5770;44.504;11.346;2023-10-31T07:13:35;36.88;;;8.77;;
11427;SDS011;5770;44.504;11.346;2023-10-31T07:16:05;38.78;;;9.20;;
11427;SDS011;5770;44.504;11.346;2023-10-31T07:18:32;35.50;;;8.48;;
11427;SDS011;5770;44.504;11.346;2023-10-31T07:21:00;43.63;;;10.32;;
11427;SDS011;5770;44.504;11.346;2023-10-31T07:23:26;34.88;;;8.40;;
11427;SDS011;5770;44.504;11.346;2023-10-31T07:25:54;35.45;;;8.77;;
11427;SDS011;5770;44.504;11.346;2023-10-31T07:28:21;39.78;;;9.45;;
11427;SDS011;5770;44.504;11.346;2023-10-31T07:30:48;36.53;;;8.73;;
11427;SDS011;5770;44.504;11.346;2023-10-31T07:33:19;35.17;;;8.43;;
11427;SDS011;5770;44.504;11.346;2023-10-31T07:35:46;36.40;;;8.52;;
11427;SDS011;5770;44.504;11.346;2023-10-31T07:38:13;36.65;;;8.60;;
11427;SDS011;5770;44.504;11.346;2023-10-31T07:40:41;30.88;;;7.60;;
11427;SDS011;5770;44.504;11.346;2023-10-31T07:43:08;41.08;;;10.07;;
11427;SDS011;5770;44.504;11.346;2023-10-31T07:45:35;41.70;;;9.90;;
11427;SDS011;5770;44.504;11.346;2023-10-31T07:48:02;43.47;;;10.35;;
11427;SDS011;5770;44.504;11.346;2023-10-31T07:50:31;34.30;;;8.15;;
11427;SDS011;5770;44.504;11.346;2023-10-31T07:52:58;28.92;;;7.15;;
11427;SDS011;5770;44.504;11.346;2023-10-31T07:55:25;29.70;;;7.22;;
11427;SDS011;5770;44.504;11.346;2023-10-31T07:57:52;33.85;;;8.55;;
11427;SDS011;5770;44.504;11.346;2023-10-31T08:00:19;36.42;;;9.35;;
11427;SDS011;5770;44.504;11.346;2023-10-31T08:02:47;40.30;;;9.90;;
11427;SDS011;5770;44.504;11.346;2023-10-31T08:05:14;29.52;;;7.25;;
11427;SDS011;5770;44.504;11.346;2023-10-31T08:07:42;39.30;;;8.93;;
11427;SDS011;5770;44.504;11.346;2023-10-31T08:10:12;31.98;;;8.18;;
11427;SDS011;5770;44.504;11.346;2023-10-31T08:12:39;31.23;;;6.93;;
11427;SDS011;5770;44.504;11.346;2023-10-31T08:15:07;27.83;;;6.18;;
11427;SDS011;5770;44.504;11.346;2023-10-31T08:17:34;28.75;;;6.63;;
11427;SDS011;5770;44.504;11.346;2023-10-31T08:20:02;25.83;;;6.93;;
11427;SDS011;5770;44.504;11.346;2023-10-31T08:22:29;27.50;;;7.03;;
11427;SDS011;5770;44.504;11.346;2023-10-31T08:24:57;31.73;;;8.13;;
11427;SDS011;5770;44.504;11.346;2023-10-31T08:27:24;31.90;;;7.18;;
11427;SDS011;5770;44.504;11.346;2023-10-31T08:29:52;31.30;;;7.82;;
11427;SDS011;5770;44.504;11.346;2023-10-31T08:32:20;26.35;;;6.38;;
11427;SDS011;5770;44.504;11.346;2023-10-31T08:34:49;34.08;;;8.38;;
11427;SDS011;5770;44.504;11.346;2023-10-31T08:37:16;38.20;;;9.27;;
11427;SDS011;5770;44.504;11.346;2023-10-31T08:39:43;28.27;;;7.40;;
11427;SDS011;5770;44.504;11.346;2023-10-31T08:42:12;32.58;;;8.18;;
11427;SDS011;5770;44.504;11.346;2023-10-31T08:44:39;30.17;;;7.78;;
11427;SDS011;5770;44.504;11.346;2023-10-31T08:47:07;33.72;;;8.30;;
11427;SDS011;5770;44.504;11.346;2023-10-31T08:49:34;33.42;;;8.35;;
11427;SDS011;5770;44.504;11.346;2023-10-31T08:52:01;26.90;;;7.03;;
11427;SDS011;5770;44.504;11.346;2023-10-31T08:54:29;32.40;;;7.60;;
11427;SDS011;5770;44.504;11.346;2023-10-31T08:56:56;22.33;;;6.22;;
11427;SDS011;5770;44.504;11.346;2023-10-31T08:59:25;31.13;;;7.85;;
11427;SDS011;5770;44.504;11.346;2023-10-31T09:01:52;29.95;;;7.70;;
11427;SDS011;5770;44.504;11.346;2023-10-31T09:04:19;27.17;;;7.28;;
11427;SDS011;5770;44.504;11.346;2023-10-31T09:06:46;36.97;;;8.88;;
11427;SDS011;5770;44.504;11.346;2023-10-31T09:09:13;37.05;;;8.02;;
11427;SDS011;5770;44.504;11.346;2023-10-31T09:11:40;31.25;;;7.55;;
11427;SDS011;5770;44.504;11.346;2023-10-31T09:14:07;39.50;;;9.23;;
11427;SDS011;5770;44.504;11.346;2023-10-31T09:16:36;32.53;;;8.13;;
11427;SDS011;5770;44.504;11.346;2023-10-31T09:19:03;37.97;;;9.05;;
11427;SDS011;5770;44.504;11.346;2023-10-31T09:21:32;32.10;;;7.97;;
11427;SDS011;5770;44.504;11.346;2023-10-31T09:23:59;33.28;;;8.00;;
11427;SDS011;5770;44.504;11.346;2023-10-31T09:26:27;32.20;;;7.47;;
11427;SDS011;5770;44.504;11.346;2023-10-31T09:28:54;40.40;;;9.25;;
11427;SDS011;5770;44.504;11.346;2023-10-31T09:31:21;32.45;;;7.95;;
11427;SDS011;5770;44.504;11.346;2023-10-31T09:33:50;32.72;;;8.35;;
11427;SDS011;5770;44.504;11.346;2023-10-31T09:36:19;37.35;;;9.00;;
11427;SDS011;5770;44.504;11.346;2023-10-31T09:38:46;31.45;;;7.60;;
11427;SDS011;5770;44.504;11.346;2023-10-31T09:41:13;26.73;;;6.55;;
11427;SDS011;5770;44.504;11.346;2023-10-31T09:43:40;29.60;;;7.05;;
11427;SDS011;5770;44.504;11.346;2023-10-31T09:46:08;28.80;;;7.22;;
11427;SDS011;5770;44.504;11.346;2023-10-31T09:48:36;33.28;;;8.68;;
11427;SDS011;5770;44.504;11.346;2023-10-31T09:51:05;37.50;;;9.43;;
11427;SDS011;5770;44.504;11.346;2023-10-31T09:53:33;27.85;;;7.28;;
11427;SDS011;5770;44.504;11.346;2023-10-31T09:56:00;29.95;;;7.70;;
11427;SDS011;5770;44.504;11.346;2023-10-31T09:58:28;29.67;;;7.43;;
11427;SDS011;5770;44.504;11.346;2023-10-31T10:00:55;29.58;;;7.97;;
11427;SDS011;5770;44.504;11.346;2023-10-31T10:03:22;28.73;;;7.75;;
11427;SDS011;5770;44.504;11.346;2023-10-31T10:05:50;29.63;;;7.38;;
11427;SDS011;5770;44.504;11.346;2023-10-31T10:08:19;33.15;;;8.48;;
11427;SDS011;5770;44.504;11.346;2023-10-31T10:10:46;30.60;;;8.43;;
11427;SDS011;5770;44.504;11.346;2023-10-31T10:13:15;30.70;;;8.00;;
11427;SDS011;5770;44.504;11.346;2023-10-31T10:15:44;32.58;;;8.38;;
11427;SDS011;5770;44.504;11.346;2023-10-31T10:18:23;29.50;;;7.05;;
11427;SDS011;5770;44.504;11.346;2023-10-31T10:20:54;32.13;;;8.05;;
11427;SDS011;5770;44.504;11.346;2023-10-31T10:23:23;30.00;;;7.45;;
11427;SDS011;5770;44.504;11.346;2023-10-31T10:25:50;32.47;;;8.13;;
11427;SDS011;5770;44.504;11.346;2023-10-31T10:28:18;30.42;;;7.18;;
11427;SDS011;5770;44.504;11.346;2023-10-31T10:30:45;33.38;;;8.32;;
11427;SDS011;5770;44.504;11.346;2023-10-31T10:33:13;23.90;;;5.95;;
11427;SDS011;5770;44.504;11.346;2023-10-31T10:35:40;31.20;;;7.50;;
11427;SDS011;5770;44.504;11.346;2023-10-31T10:38:09;27.23;;;6.88;;
11427;SDS011;5770;44.504;11.346;2023-10-31T10:40:39;25.08;;;6.50;;
11427;SDS011;5770;44.504;11.346;2023-10-31T10:43:08;25.88;;;6.43;;
11427;SDS011;5770;44.504;11.346;2023-10-31T10:45:38;32.55;;;8.05;;
11427;SDS011;5770;44.504;11.346;2023-10-31T10:48:09;28.08;;;6.68;;
11427;SDS011;5770;44.504;11.346;2023-10-31T10:50:41;31.25;;;7.07;;
11427;SDS011;5770;44.504;11.346;2023-10-31T10:53:10;25.65;;;6.65;;
11427;SDS011;5770;44.504;11.346;2023-10-31T10:55:44;23.23;;;5.97;;
11427;SDS011;5770;44.504;11.346;2023-10-31T10:58:13;24.42;;;6.35;;
11427;SDS011;5770;44.504;11.346;2023-10-31T11:00:44;23.70;;;6.07;;
11427;SDS011;5770;44.504;11.346;2023-10-31T11:03:12;27.55;;;7.22;;
11427;SDS011;5770;44.504;11.346;2023-10-31T11:05:40;31.40;;;7.28;;
11427;SDS011;5770;44.504;11.346;2023-10-31T11:08:08;30.63;;;8.13;;
11427;SDS011;5770;44.504;11.346;2023-10-31T11:10:35;27.70;;;6.90;;
11427;SDS011;5770;44.504;11.346;2023-10-31T11:13:04;21.80;;;5.60;;
11427;SDS011;5770;44.504;11.346;2023-10-31T11:15:35;31.60;;;7.72;;
11427;SDS011;5770;44.504;11.346;2023-10-31T11:18:03;30.38;;;7.25;;
11427;SDS011;5770;44.504;11.346;2023-10-31T11:20:31;21.27;;;5.43;;
11427;SDS011;5770;44.504;11.346;2023-10-31T11:22:58;26.45;;;6.78;;
11427;SDS011;5770;44.504;11.346;2023-10-31T11:25:29;30.73;;;7.40;;
11427;SDS011;5770;44.504;11.346;2023-10-31T11:28:10;23.55;;;5.68;;
11427;SDS011;5770;44.504;11.346;2023-10-31T11:30:38;27.58;;;6.53;;
11427;SDS011;5770;44.504;11.346;2023-10-31T11:33:07;22.27;;;5.78;;
11427;SDS011;5770;44.504;11.346;2023-10-31T11:35:38;25.25;;;6.55;;
11427;SDS011;5770;44.504;11.346;2023-10-31T11:38:06;27.10;;;6.50;;
11427;SDS011;5770;44.504;11.346;2023-10-31T11:40:33;27.58;;;6.85;;
11427;SDS011;5770;44.504;11.346;2023-10-31T11:43:02;25.70;;;6.32;;
11427;SDS011;5770;44.504;11.346;2023-10-31T11:45:33;22.45;;;6.00;;
11427;SDS011;5770;44.504;11.346;2023-10-31T11:48:01;25.08;;;6.47;;
11427;SDS011;5770;44.504;11.346;2023-10-31T11:50:29;19.05;;;4.97;;
11427;SDS011;5770;44.504;11.346;2023-10-31T11:53:04;26.45;;;6.85;;
11427;SDS011;5770;44.504;11.346;2023-10-31T11:55:32;25.25;;;6.47;;
11427;SDS011;5770;44.504;11.346;2023-10-31T11:58:13;21.92;;;5.47;;
11427;SDS011;5770;44.504;11.346;2023-10-31T12:00:41;23.33;;;6.07;;
11427;SDS011;5770;44.504;11.346;2023-10-31T12:03:11;22.73;;;6.13;;
11427;SDS011;5770;44.504;11.346;2023-10-31T12:05:38;24.80;;;6.75;;
11427;SDS011;5770;44.504;11.346;2023-10-31T12:08:05;28.33;;;6.72;;
11427;SDS011;5770;44.504;11.346;2023-10-31T12:10:32;24.13;;;6.45;;
11427;SDS011;5770;44.504;11.346;2023-10-31T12:13:00;20.75;;;5.75;;
11427;SDS011;5770;44.504;11.346;2023-10-31T12:15:26;23.73;;;6.22;;
11427;SDS011;5770;44.504;11.346;2023-10-31T12:17:57;32.67;;;8.02;;
11427;SDS011;5770;44.504;11.346;2023-10-31T12:20:26;28.67;;;6.72;;
11427;SDS011;5770;44.504;11.346;2023-10-31T12:23:03;24.23;;;6.32;;
11427;SDS011;5770;44.504;11.346;2023-10-31T12:25:30;26.98;;;6.80;;
11427;SDS011;5770;44.504;11.346;2023-10-31T12:28:00;27.35;;;6.93;;
11427;SDS011;5770;44.504;11.346;2023-10-31T12:30:27;30.85;;;7.88;;
11427;SDS011;5770;44.504;11.346;2023-10-31T12:32:54;30.25;;;7.40;;
11427;SDS011;5770;44.504;11.346;2023-10-31T12:35:23;27.35;;;6.82;;
11427;SDS011;5770;44.504;11.346;2023-10-31T12:37:53;29.50;;;7.15;;
11427;SDS011;5770;44.504;11.346;2023-10-31T12:40:22;26.27;;;6.57;;
11427;SDS011;5770;44.504;11.346;2023-10-31T12:42:50;26.75;;;6.70;;
11427;SDS011;5770;44.504;11.346;2023-10-31T12:45:17;31.38;;;7.63;;
11427;SDS011;5770;44.504;11.346;2023-10-31T12:47:44;31.27;;;8.02;;
11427;SDS011;5770;44.504;11.346;2023-10-31T12:50:12;29.58;;;7.50;;
11427;SDS011;5770;44.504;11.346;2023-10-31T12:52:48;29.40;;;7.43;;
11427;SDS011;5770;44.504;11.346;2023-10-31T12:55:19;28.13;;;6.78;;
11427;SDS011;5770;44.504;11.346;2023-10-31T12:57:47;27.90;;;7.53;;
11427;SDS011;5770;44.504;11.346;2023-10-31T13:00:15;28.25;;;7.15;;
11427;SDS011;5770;44.504;11.346;2023-10-31T13:02:49;28.98;;;7.22;;
11427;SDS011;5770;44.504;11.346;2023-10-31T13:05:16;26.58;;;6.80;;
11427;SDS011;5770;44.504;11.346;2023-10-31T13:07:54;32.67;;;8.45;;
11427;SDS011;5770;44.504;11.346;2023-10-31T13:10:23;28.50;;;7.60;;
11427;SDS011;5770;44.504;11.346;2023-10-31T13:12:51;25.58;;;6.85;;
11427;SDS011;5770;44.504;11.346;2023-10-31T13:15:20;21.88;;;6.05;;
11427;SDS011;5770;44.504;11.346;2023-10-31T13:17:47;24.67;;;6.72;;
11427;SDS011;5770;44.504;11.346;2023-10-31T13:20:15;23.45;;;6.28;;
11427;SDS011;5770;44.504;11.346;2023-10-31T13:22:42;23.73;;;5.95;;
11427;SDS011;5770;44.504;11.346;2023-10-31T13:25:10;28.40;;;7.32;;
11427;SDS011;5770;44.504;11.346;2023-10-31T13:27:39;28.75;;;6.97;;
11427;SDS011;5770;44.504;11.346;2023-10-31T13:30:08;27.33;;;6.63;;
11427;SDS011;5770;44.504;11.346;2023-10-31T13:32:36;24.25;;;6.15;;
11427;SDS011;5770;44.504;11.346;2023-10-31T13:38:06;28.05;;;7.05;;
11427;SDS011;5770;44.504;11.346;2023-10-31T13:40:33;24.88;;;6.60;;
11427;SDS011;5770;44.504;11.346;2023-10-31T13:43:02;30.38;;;7.70;;
11427;SDS011;5770;44.504;11.346;2023-10-31T13:45:30;27.38;;;7.00;;
11427;SDS011;5770;44.504;11.346;2023-10-31T13:47:57;34.42;;;8.18;;
11427;SDS011;5770;44.504;11.346;2023-10-31T13:50:24;27.77;;;7.00;;
11427;SDS011;5770;44.504;11.346;2023-10-31T13:52:52;32.08;;;7.80;;
11427;SDS011;5770;44.504;11.346;2023-10-31T13:55:19;29.38;;;7.20;;
11427;SDS011;5770;44.504;11.346;2023-10-31T13:57:46;31.27;;;7.78;;
11427;SDS011;5770;44.504;11.346;2023-10-31T14:00:15;22.42;;;5.45;;
11427;SDS011;5770;44.504;11.346;2023-10-31T14:02:42;34.63;;;8.32;;
11427;SDS011;5770;44.504;11.346;2023-10-31T14:05:09;30.92;;;7.65;;
11427;SDS011;5770;44.504;11.346;2023-10-31T14:07:37;32.05;;;8.20;;
11427;SDS011;5770;44.504;11.346;2023-10-31T14:10:04;34.60;;;8.20;;
11427;SDS011;5770;44.504;11.346;2023-10-31T14:12:31;28.42;;;7.38;;
11427;SDS011;5770;44.504;11.346;2023-10-31T14:14:58;31.75;;;8.13;;
11427;SDS011;5770;44.504;11.346;2023-10-31T14:17:27;30.65;;;7.85;;
11427;SDS011;5770;44.504;11.346;2023-10-31T14:19:54;30.20;;;7.55;;
11427;SDS011;5770;44.504;11.346;2023-10-31T14:22:21;39.45;;;8.68;;
11427;SDS011;5770;44.504;11.346;2023-10-31T14:24:48;36.97;;;8.80;;
11427;SDS011;5770;44.504;11.346;2023-10-31T14:27:16;27.17;;;6.72;;
11427;SDS011;5770;44.504;11.346;2023-10-31T14:29:44;31.77;;;7.85;;
11427;SDS011;5770;44.504;11.346;2023-10-31T14:32:11;33.00;;;8.10;;
11427;SDS011;5770;44.504;11.346;2023-10-31T14:34:40;35.90;;;8.45;;
11427;SDS011;5770;44.504;11.346;2023-10-31T14:37:07;35.40;;;8.10;;